createdAt,value
2017-07-25T00:00:22.145Z,0
2017-07-25T00:01:23.405Z,0
2017-07-25T00:02:22.760Z,0
2017-07-25T00:03:22.422Z,0
2017-07-25T00:04:22.723Z,0
2017-07-25T00:05:23.333Z,0
2017-07-25T00:06:22.382Z,0
2017-07-25T00:07:22.378Z,0
2017-07-25T00:08:22.670Z,0
2017-07-25T00:09:22.979Z,0
2017-07-25T00:10:22.963Z,0
2017-07-25T00:11:22.651Z,0
2017-07-25T00:12:22.941Z,0
2017-07-25T00:13:22.929Z,0
2017-07-25T00:14:23.238Z,0
2017-07-25T00:15:22.593Z,0
2017-07-25T00:16:23.215Z,0
2017-07-25T00:17:22.266Z,0
2017-07-25T00:18:22.869Z,0
2017-07-25T00:19:22.856Z,0
2017-07-25T00:20:22.220Z,0
2017-07-25T00:21:22.520Z,0
2017-07-25T00:22:22.208Z,0
2017-07-25T00:23:23.130Z,0
2017-07-25T00:24:22.493Z,0
2017-07-25T00:25:22.788Z,0
2017-07-25T00:26:22.167Z,0
2017-07-25T00:27:23.084Z,0
2017-07-25T00:28:22.749Z,0
2017-07-25T00:29:22.432Z,0
2017-07-25T00:30:22.733Z,0
2017-07-25T00:31:23.029Z,0
2017-07-25T00:32:23.024Z,0
2017-07-25T00:33:23.003Z,0
2017-07-25T00:34:22.691Z,0
2017-07-25T00:35:22.366Z,0
2017-07-25T00:36:22.034Z,0
2017-07-25T00:37:22.350Z,0
2017-07-25T00:38:22.329Z,0
2017-07-25T00:39:22.318Z,0
2017-07-25T00:40:22.296Z,0
2017-07-25T00:41:22.286Z,0
2017-07-25T00:42:22.273Z,0
2017-07-25T00:43:22.578Z,0
2017-07-25T00:44:22.878Z,0
2017-07-25T00:45:22.236Z,0
2017-07-25T00:46:22.856Z,0
2017-07-25T00:47:21.896Z,0
2017-07-25T00:48:22.826Z,0
2017-07-25T00:49:22.211Z,0
2017-07-25T00:50:22.182Z,0
2017-07-25T00:51:22.171Z,0
2017-07-25T00:52:22.159Z,0
2017-07-25T00:53:22.462Z,0
2017-07-25T00:54:22.448Z,0
2017-07-25T00:55:21.492Z,0
2017-07-25T00:56:22.418Z,0
2017-07-25T00:57:22.406Z,0
2017-07-25T00:58:22.704Z,0
2017-07-25T00:59:22.716Z,0
2017-07-25T01:00:21.761Z,0
2017-07-25T01:01:22.370Z,0
2017-07-25T01:02:22.356Z,0
2017-07-25T01:03:22.028Z,0
2017-07-25T01:04:22.646Z,0
2017-07-25T01:05:21.995Z,0
2017-07-25T01:06:21.680Z,0
2017-07-25T01:07:22.612Z,0
2017-07-25T01:08:21.656Z,0
2017-07-25T01:09:22.275Z,0
2017-07-25T01:10:21.942Z,0
2017-07-25T01:11:22.464Z,0
2017-07-25T01:12:22.249Z,0
2017-07-25T01:13:21.905Z,0
2017-07-25T01:14:21.590Z,0
2017-07-25T01:15:21.583Z,0
2017-07-25T01:16:22.494Z,0
2017-07-25T01:17:21.860Z,0
2017-07-25T01:18:22.196Z,0
2017-07-25T01:19:22.138Z,0
2017-07-25T01:20:21.834Z,0
2017-07-25T01:21:21.810Z,0
2017-07-25T01:22:22.425Z,0
2017-07-25T01:23:21.481Z,0
2017-07-25T01:24:22.083Z,0
2017-07-25T01:25:21.763Z,0
2017-07-25T01:26:21.782Z,0
2017-07-25T01:27:21.116Z,0
2017-07-25T01:28:21.736Z,0
2017-07-25T01:29:22.047Z,0
2017-07-25T01:30:22.012Z,0
2017-07-25T01:31:21.722Z,0
2017-07-25T01:32:21.675Z,0
2017-07-25T01:33:21.664Z,0
2017-07-25T01:34:22.027Z,0
2017-07-25T01:35:21.643Z,0
2017-07-25T01:36:22.267Z,0
2017-07-25T01:37:21.932Z,0
2017-07-25T01:38:21.923Z,0
2017-07-25T01:39:21.619Z,0
2017-07-25T01:40:21.900Z,0
2017-07-25T01:41:21.890Z,0
2017-07-25T01:42:21.562Z,0
2017-07-25T01:43:21.273Z,0
2017-07-25T01:44:21.223Z,0
2017-07-25T01:45:22.153Z,0
2017-07-25T01:46:21.828Z,0
2017-07-25T01:47:21.811Z,0
2017-07-25T01:48:22.141Z,0
2017-07-25T01:49:21.482Z,0
2017-07-25T01:50:22.121Z,0
2017-07-25T01:51:21.496Z,0
2017-07-25T01:52:21.752Z,0
2017-07-25T01:53:21.736Z,0
2017-07-25T01:54:21.421Z,0
2017-07-25T01:55:21.405Z,0
2017-07-25T01:56:21.710Z,0
2017-07-25T01:57:21.694Z,0
2017-07-25T01:58:21.372Z,0
2017-07-25T01:59:21.356Z,0
2017-07-25T02:00:21.034Z,0
2017-07-25T02:01:21.649Z,0
2017-07-25T02:02:21.631Z,0
2017-07-25T02:03:21.306Z,0
2017-07-25T02:04:21.296Z,0
2017-07-25T02:05:21.908Z,0
2017-07-25T02:06:21.917Z,0
2017-07-25T02:07:20.946Z,0
2017-07-25T02:08:21.561Z,0
2017-07-25T02:09:21.546Z,0
2017-07-25T02:10:21.540Z,0
2017-07-25T02:11:21.532Z,0
2017-07-25T02:12:21.862Z,0
2017-07-25T02:13:20.896Z,0
2017-07-25T02:14:21.176Z,0
2017-07-25T02:15:20.847Z,0
2017-07-25T02:16:21.155Z,0
2017-07-25T02:17:21.462Z,0
2017-07-25T02:18:21.760Z,0
2017-07-25T02:19:21.434Z,0
2017-07-25T02:20:21.417Z,0
2017-07-25T02:21:20.780Z,0
2017-07-25T02:22:21.705Z,0
2017-07-25T02:23:21.377Z,0
2017-07-25T02:24:21.060Z,0
2017-07-25T02:25:20.734Z,0
2017-07-25T02:26:21.051Z,0
2017-07-25T02:27:21.336Z,0
2017-07-25T02:28:21.340Z,0
2017-07-25T02:29:21.611Z,0
2017-07-25T02:30:21.301Z,0
2017-07-25T02:31:21.307Z,0
2017-07-25T02:32:20.650Z,0
2017-07-25T02:33:20.666Z,0
2017-07-25T02:34:21.567Z,0
2017-07-25T02:35:21.553Z,0
2017-07-25T02:36:21.543Z,0
2017-07-25T02:37:21.285Z,0
2017-07-25T02:38:21.222Z,0
2017-07-25T02:39:21.190Z,0
2017-07-25T02:40:21.199Z,0
2017-07-25T02:41:20.850Z,0
2017-07-25T02:42:21.151Z,0
2017-07-25T02:43:21.160Z,0
2017-07-25T02:44:20.816Z,0
2017-07-25T02:45:21.121Z,0
2017-07-25T02:46:20.164Z,0
2017-07-25T02:47:20.784Z,0
2017-07-25T02:48:21.083Z,0
2017-07-25T02:49:20.466Z,0
2017-07-25T02:50:20.745Z,0
2017-07-25T02:51:21.043Z,0
2017-07-25T02:52:20.726Z,0
2017-07-25T02:53:20.714Z,0
2017-07-25T02:54:21.314Z,0
2017-07-25T02:55:21.322Z,0
2017-07-25T02:56:20.673Z,0
2017-07-25T02:57:20.670Z,0
2017-07-25T02:58:20.641Z,0
2017-07-25T02:59:20.943Z,0
2017-07-25T03:00:21.265Z,0
2017-07-25T03:01:20.915Z,0
2017-07-25T03:02:20.902Z,0
2017-07-25T03:03:20.914Z,0
2017-07-25T03:04:20.566Z,0
2017-07-25T03:05:20.604Z,0
2017-07-25T03:06:21.173Z,0
2017-07-25T03:07:20.847Z,0
2017-07-25T03:08:21.138Z,0
2017-07-25T03:09:20.820Z,0
2017-07-25T03:10:20.495Z,0
2017-07-25T03:11:20.719Z,0
2017-07-25T03:12:21.101Z,0
2017-07-25T03:13:20.779Z,0
2017-07-25T03:14:20.760Z,0
2017-07-25T03:15:20.432Z,0
2017-07-25T03:16:20.729Z,0
2017-07-25T03:17:20.728Z,0
2017-07-25T03:18:20.732Z,0
2017-07-25T03:19:20.704Z,0
2017-07-25T03:20:20.681Z,0
2017-07-25T03:21:20.355Z,0
2017-07-25T03:22:20.669Z,0
2017-07-25T03:23:20.638Z,0
2017-07-25T03:24:20.633Z,0
2017-07-25T03:25:20.623Z,0
2017-07-25T03:26:20.928Z,0
2017-07-25T03:27:20.292Z,0
2017-07-25T03:28:20.895Z,0
2017-07-25T03:29:20.297Z,0
2017-07-25T03:30:20.269Z,0
2017-07-25T03:31:20.875Z,0
2017-07-25T03:32:20.848Z,0
2017-07-25T03:33:19.886Z,0
2017-07-25T03:34:20.512Z,0
2017-07-25T03:35:20.498Z,0
2017-07-25T03:36:20.174Z,0
2017-07-25T03:37:20.156Z,0
2017-07-25T03:38:20.457Z,0
2017-07-25T03:39:20.452Z,0
2017-07-25T03:40:20.430Z,0
2017-07-25T03:41:19.790Z,0
2017-07-25T03:42:20.713Z,0
2017-07-25T03:43:20.086Z,0
2017-07-25T03:44:20.377Z,0
2017-07-25T03:45:20.054Z,0
2017-07-25T03:46:20.042Z,0
2017-07-25T03:47:20.067Z,0
2017-07-25T03:48:20.027Z,0
2017-07-25T03:49:20.032Z,0
2017-07-25T03:50:19.680Z,0
2017-07-25T03:51:20.302Z,0
2017-07-25T03:52:20.283Z,0
2017-07-25T03:53:19.953Z,0
2017-07-25T03:54:19.951Z,0
2017-07-25T03:55:19.931Z,0
2017-07-25T03:56:19.304Z,0
2017-07-25T03:57:20.221Z,0
2017-07-25T03:58:19.891Z,0
2017-07-25T03:59:20.504Z,0
2017-07-25T04:00:19.881Z,0
2017-07-25T04:01:19.855Z,0
2017-07-25T04:02:19.534Z,0
2017-07-25T04:03:19.520Z,0
2017-07-25T04:04:20.147Z,0
2017-07-25T04:05:20.123Z,0
2017-07-25T04:06:19.794Z,0
2017-07-25T04:07:19.782Z,0
2017-07-25T04:08:20.086Z,0
2017-07-25T04:09:19.761Z,0
2017-07-25T04:10:19.745Z,0
2017-07-25T04:11:19.739Z,0
2017-07-25T04:12:19.408Z,0
2017-07-25T04:13:19.403Z,0
2017-07-25T04:14:19.697Z,0
2017-07-25T04:15:19.696Z,0
2017-07-25T04:16:20.304Z,0
2017-07-25T04:17:19.665Z,0
2017-07-25T04:18:19.651Z,0
2017-07-25T04:19:19.636Z,0
2017-07-25T04:20:19.630Z,0
2017-07-25T04:21:19.618Z,0
2017-07-25T04:22:19.617Z,5
2017-07-25T04:23:19.582Z,5
2017-07-25T04:24:19.884Z,5
2017-07-25T04:25:19.877Z,5
2017-07-25T04:26:19.581Z,5
2017-07-25T04:27:19.536Z,5
2017-07-25T04:28:19.521Z,5
2017-07-25T04:29:19.830Z,5
2017-07-25T04:30:19.559Z,5
2017-07-25T04:31:19.798Z,5
2017-07-25T04:32:20.099Z,5
2017-07-25T04:33:19.773Z,5
2017-07-25T04:34:19.445Z,5
2017-07-25T04:35:19.444Z,5
2017-07-25T04:36:20.046Z,5
2017-07-25T04:37:19.734Z,5
2017-07-25T04:38:19.713Z,5
2017-07-25T04:39:19.698Z,5
2017-07-25T04:40:19.731Z,5
2017-07-25T04:41:19.679Z,5
2017-07-25T04:42:19.361Z,5
2017-07-25T04:43:19.651Z,10
2017-07-25T04:44:19.947Z,10
2017-07-25T04:45:19.940Z,10
2017-07-25T04:46:18.988Z,10
2017-07-25T04:47:19.295Z,10
2017-07-25T04:48:19.272Z,10
2017-07-25T04:49:19.256Z,15
2017-07-25T04:50:19.307Z,15
2017-07-25T04:51:19.880Z,20
2017-07-25T04:52:19.846Z,20
2017-07-25T04:53:18.905Z,15
2017-07-25T04:54:19.201Z,20
2017-07-25T04:55:18.869Z,15
2017-07-25T04:56:19.491Z,15
2017-07-25T04:57:19.474Z,10
2017-07-25T04:58:19.164Z,15
2017-07-25T04:59:19.450Z,10
2017-07-25T05:00:19.440Z,15
2017-07-25T05:01:19.475Z,10
2017-07-25T05:02:19.732Z,10
2017-07-25T05:03:19.732Z,10
2017-07-25T05:04:19.078Z,10
2017-07-25T05:05:18.444Z,10
2017-07-25T05:06:19.057Z,10
2017-07-25T05:07:19.350Z,15
2017-07-25T05:08:19.355Z,15
2017-07-25T05:09:19.331Z,15
2017-07-25T05:10:19.003Z,15
2017-07-25T05:11:20.017Z,15
2017-07-25T05:12:18.977Z,20
2017-07-25T05:13:18.658Z,20
2017-07-25T05:14:18.999Z,20
2017-07-25T05:15:18.316Z,25
2017-07-25T05:16:18.928Z,25
2017-07-25T05:17:19.544Z,25
2017-07-25T05:18:18.905Z,25
2017-07-25T05:19:18.904Z,30
2017-07-25T05:20:18.559Z,30
2017-07-25T05:21:19.184Z,25
2017-07-25T05:22:18.866Z,15
2017-07-25T05:23:18.533Z,15
2017-07-25T05:24:19.460Z,15
2017-07-25T05:25:19.451Z,15
2017-07-25T05:26:18.856Z,20
2017-07-25T05:27:19.108Z,15
2017-07-25T05:28:19.099Z,15
2017-07-25T05:29:19.083Z,15
2017-07-25T05:30:19.068Z,20
2017-07-25T05:31:18.747Z,25
2017-07-25T05:32:19.043Z,25
2017-07-25T05:33:18.745Z,30
2017-07-25T05:34:18.707Z,30
2017-07-25T05:35:18.699Z,40
2017-07-25T05:36:18.376Z,40
2017-07-25T05:37:18.678Z,45
2017-07-25T05:38:18.373Z,40
2017-07-25T05:39:18.647Z,40
2017-07-25T05:40:18.946Z,40
2017-07-25T05:41:18.628Z,35
2017-07-25T05:42:18.965Z,40
2017-07-25T05:43:18.913Z,35
2017-07-25T05:44:18.315Z,45
2017-07-25T05:45:18.583Z,45
2017-07-25T05:46:18.563Z,40
2017-07-25T05:47:18.267Z,45
2017-07-25T05:48:18.547Z,50
2017-07-25T05:49:18.840Z,45
2017-07-25T05:50:19.194Z,50
2017-07-25T05:51:18.554Z,50
2017-07-25T05:52:18.802Z,55
2017-07-25T05:53:19.106Z,50
2017-07-25T05:54:18.790Z,50
2017-07-25T05:55:19.116Z,55
2017-07-25T05:56:19.071Z,55
2017-07-25T05:57:18.748Z,55
2017-07-25T05:58:18.434Z,50
2017-07-25T05:59:18.423Z,50
2017-07-25T06:00:18.088Z,50
2017-07-25T06:01:18.384Z,50
2017-07-25T06:02:18.687Z,50
2017-07-25T06:03:18.365Z,50
2017-07-25T06:04:18.663Z,50
2017-07-25T06:05:18.967Z,45
2017-07-25T06:06:18.646Z,45
2017-07-25T06:07:18.625Z,45
2017-07-25T06:08:18.298Z,45
2017-07-25T06:09:18.607Z,50
2017-07-25T06:10:18.590Z,50
2017-07-25T06:11:17.961Z,50
2017-07-25T06:12:18.256Z,50
2017-07-25T06:13:18.891Z,65
2017-07-25T06:14:18.856Z,60
2017-07-25T06:15:18.244Z,60
2017-07-25T06:16:18.839Z,55
2017-07-25T06:17:18.203Z,65
2017-07-25T06:18:18.499Z,60
2017-07-25T06:19:18.801Z,60
2017-07-25T06:20:18.477Z,50
2017-07-25T06:21:17.840Z,55
2017-07-25T06:22:18.767Z,55
2017-07-25T06:23:18.134Z,55
2017-07-25T06:24:18.121Z,50
2017-07-25T06:25:18.104Z,60
2017-07-25T06:26:17.786Z,60
2017-07-25T06:27:18.084Z,65
2017-07-25T06:28:18.079Z,65
2017-07-25T06:29:18.374Z,70
2017-07-25T06:30:18.671Z,70
2017-07-25T06:31:18.350Z,80
2017-07-25T06:32:18.030Z,80
2017-07-25T06:33:18.331Z,80
2017-07-25T06:34:18.313Z,80
2017-07-25T06:35:17.991Z,75
2017-07-25T06:36:17.662Z,85
2017-07-25T06:37:18.591Z,80
2017-07-25T06:38:18.302Z,90
2017-07-25T06:39:18.255Z,90
2017-07-25T06:40:18.243Z,85
2017-07-25T06:41:17.925Z,80
2017-07-25T06:42:17.597Z,80
2017-07-25T06:43:18.215Z,80
2017-07-25T06:44:17.578Z,80
2017-07-25T06:45:18.188Z,75
2017-07-25T06:46:17.562Z,70
2017-07-25T06:47:17.907Z,65
2017-07-25T06:48:17.849Z,65
2017-07-25T06:49:18.143Z,65
2017-07-25T06:50:18.151Z,60
2017-07-25T06:51:18.124Z,65
2017-07-25T06:52:17.803Z,60
2017-07-25T06:53:18.103Z,55
2017-07-25T06:54:18.096Z,55
2017-07-25T06:55:18.079Z,55
2017-07-25T06:56:17.764Z,55
2017-07-25T06:57:17.757Z,50
2017-07-25T06:58:17.417Z,50
2017-07-25T06:59:17.630Z,50
2017-07-25T07:00:18.031Z,50
2017-07-25T07:01:17.914Z,55
2017-07-25T07:02:18.009Z,55
2017-07-25T07:03:18.000Z,50
2017-07-25T07:04:17.997Z,55
2017-07-25T07:05:17.399Z,55
2017-07-25T07:06:18.293Z,60
2017-07-25T07:07:17.942Z,60
2017-07-25T07:08:17.311Z,50
2017-07-25T07:09:17.925Z,55
2017-07-25T07:10:17.925Z,55
2017-07-25T07:11:17.794Z,55
2017-07-25T07:12:17.651Z,55
2017-07-25T07:13:17.893Z,50
2017-07-25T07:14:17.881Z,60
2017-07-25T07:15:17.559Z,55
2017-07-25T07:16:17.543Z,85
2017-07-25T07:17:17.231Z,95
2017-07-25T07:18:17.204Z,95
2017-07-25T07:19:18.137Z,100
2017-07-25T07:20:17.518Z,105
2017-07-25T07:21:17.795Z,105
2017-07-25T07:22:17.475Z,105
2017-07-25T07:23:17.152Z,105
2017-07-25T07:24:17.778Z,100
2017-07-25T07:25:17.749Z,100
2017-07-25T07:26:17.433Z,100
2017-07-25T07:27:18.054Z,100
2017-07-25T07:28:16.784Z,95
2017-07-25T07:29:17.079Z,95
2017-07-25T07:30:17.394Z,90
2017-07-25T07:31:17.697Z,80
2017-07-25T07:32:17.385Z,80
2017-07-25T07:33:17.044Z,80
2017-07-25T07:34:17.995Z,80
2017-07-25T07:35:17.649Z,70
2017-07-25T07:36:17.018Z,75
2017-07-25T07:37:17.006Z,55
2017-07-25T07:38:17.615Z,70
2017-07-25T07:39:17.600Z,85
2017-07-25T07:40:17.284Z,70
2017-07-25T07:41:17.897Z,75
2017-07-25T07:42:17.570Z,80
2017-07-25T07:43:17.558Z,75
2017-07-25T07:44:17.237Z,65
2017-07-25T07:45:16.918Z,70
2017-07-25T07:46:16.894Z,65
2017-07-25T07:47:17.510Z,70
2017-07-25T07:48:17.819Z,60
2017-07-25T07:49:17.214Z,60
2017-07-25T07:50:17.511Z,85
2017-07-25T07:51:17.789Z,75
2017-07-25T07:52:17.155Z,65
2017-07-25T07:53:17.441Z,55
2017-07-25T07:54:17.440Z,60
2017-07-25T07:55:17.742Z,65
2017-07-25T07:56:17.420Z,80
2017-07-25T07:57:17.406Z,75
2017-07-25T07:58:17.080Z,55
2017-07-25T07:59:17.074Z,75
2017-07-25T08:00:17.062Z,75
2017-07-25T08:01:17.703Z,70
2017-07-25T08:02:17.347Z,65
2017-07-25T08:03:16.744Z,70
2017-07-25T08:04:17.354Z,95
2017-07-25T08:05:17.316Z,95
2017-07-25T08:06:17.305Z,85
2017-07-25T08:07:16.989Z,80
2017-07-25T08:08:17.299Z,80
2017-07-25T08:09:16.983Z,80
2017-07-25T08:10:16.330Z,85
2017-07-25T08:11:17.565Z,85
2017-07-25T08:12:17.568Z,75
2017-07-25T08:13:17.284Z,80
2017-07-25T08:14:16.596Z,80
2017-07-25T08:15:16.899Z,70
2017-07-25T08:16:17.201Z,60
2017-07-25T08:17:17.196Z,60
2017-07-25T08:18:17.176Z,50
2017-07-25T08:19:17.172Z,60
2017-07-25T08:20:17.149Z,55
2017-07-25T08:21:16.826Z,60
2017-07-25T08:22:16.826Z,55
2017-07-25T08:23:17.434Z,55
2017-07-25T08:24:16.200Z,55
2017-07-25T08:25:17.101Z,65
2017-07-25T08:26:17.412Z,100
2017-07-25T08:27:17.085Z,125
2017-07-25T08:28:17.376Z,145
2017-07-25T08:29:17.375Z,145
2017-07-25T08:30:16.731Z,130
2017-07-25T08:31:17.036Z,110
2017-07-25T08:32:16.708Z,125
2017-07-25T08:33:17.008Z,140
2017-07-25T08:34:17.322Z,145
2017-07-25T08:35:16.981Z,140
2017-07-25T08:36:16.360Z,140
2017-07-25T08:37:16.663Z,145
2017-07-25T08:38:16.689Z,170
2017-07-25T08:39:16.009Z,175
2017-07-25T08:40:16.932Z,190
2017-07-25T08:41:17.234Z,165
2017-07-25T08:42:17.225Z,180
2017-07-25T08:43:16.333Z,170
2017-07-25T08:44:16.271Z,160
2017-07-25T08:45:16.575Z,170
2017-07-25T08:46:16.880Z,135
2017-07-25T08:47:16.863Z,165
2017-07-25T08:48:16.860Z,195
2017-07-25T08:49:16.838Z,200
2017-07-25T08:50:16.846Z,180
2017-07-25T08:51:16.506Z,135
2017-07-25T08:52:16.809Z,115
2017-07-25T08:53:16.796Z,100
2017-07-25T08:54:16.488Z,110
2017-07-25T08:55:17.105Z,135
2017-07-25T08:56:16.799Z,135
2017-07-25T08:57:16.467Z,115
2017-07-25T08:58:17.070Z,80
2017-07-25T08:59:17.051Z,105
2017-07-25T09:00:16.738Z,140
2017-07-25T09:01:16.420Z,145
2017-07-25T09:02:16.080Z,185
2017-07-25T09:03:16.703Z,185
2017-07-25T09:04:16.380Z,205
2017-07-25T09:05:16.377Z,210
2017-07-25T09:06:16.359Z,190
2017-07-25T09:07:16.984Z,180
2017-07-25T09:08:16.340Z,190
2017-07-25T09:09:16.653Z,195
2017-07-25T09:10:16.632Z,210
2017-07-25T09:11:16.314Z,200
2017-07-25T09:12:16.230Z,190
2017-07-25T09:13:16.607Z,230
2017-07-25T09:14:16.591Z,255
2017-07-25T09:15:16.270Z,235
2017-07-25T09:16:16.580Z,230
2017-07-25T09:17:16.256Z,230
2017-07-25T09:18:16.761Z,215
2017-07-25T09:19:16.541Z,175
2017-07-25T09:20:16.566Z,210
2017-07-25T09:21:16.206Z,210
2017-07-25T09:22:16.194Z,210
2017-07-25T09:23:15.568Z,235
2017-07-25T09:24:16.863Z,240
2017-07-25T09:25:16.165Z,200
2017-07-25T09:26:16.474Z,140
2017-07-25T09:27:16.146Z,130
2017-07-25T09:28:16.670Z,105
2017-07-25T09:29:16.147Z,100
2017-07-25T09:30:16.434Z,90
2017-07-25T09:31:16.437Z,140
2017-07-25T09:32:16.109Z,130
2017-07-25T09:33:16.409Z,150
2017-07-25T09:34:16.447Z,180
2017-07-25T09:35:16.702Z,185
2017-07-25T09:36:16.064Z,175
2017-07-25T09:37:15.940Z,180
2017-07-25T09:38:16.054Z,170
2017-07-25T09:39:15.731Z,165
2017-07-25T09:40:16.339Z,160
2017-07-25T09:41:16.639Z,160
2017-07-25T09:42:16.052Z,155
2017-07-25T09:43:16.315Z,90
2017-07-25T09:44:15.732Z,45
2017-07-25T09:45:16.634Z,55
2017-07-25T09:46:15.967Z,120
2017-07-25T09:47:16.582Z,155
2017-07-25T09:48:16.582Z,170
2017-07-25T09:49:16.252Z,230
2017-07-25T09:50:15.617Z,260
2017-07-25T09:51:15.920Z,245
2017-07-25T09:52:15.917Z,240
2017-07-25T09:53:15.899Z,245
2017-07-25T09:54:16.209Z,250
2017-07-25T09:55:15.888Z,255
2017-07-25T09:56:15.882Z,250
2017-07-25T09:57:15.866Z,235
2017-07-25T09:58:15.853Z,250
2017-07-25T09:59:16.152Z,255
2017-07-25T10:00:15.850Z,255
2017-07-25T10:01:15.833Z,250
2017-07-25T10:02:16.133Z,220
2017-07-25T10:03:16.166Z,185
2017-07-25T10:04:15.809Z,175
2017-07-25T10:05:15.484Z,165
2017-07-25T10:06:16.401Z,155
2017-07-25T10:07:15.775Z,180
2017-07-25T10:08:16.074Z,205
2017-07-25T10:09:16.073Z,195
2017-07-25T10:10:15.742Z,150
2017-07-25T10:11:16.040Z,190
2017-07-25T10:12:15.738Z,180
2017-07-25T10:13:15.406Z,160
2017-07-25T10:14:15.710Z,155
2017-07-25T10:15:16.340Z,135
2017-07-25T10:16:15.695Z,145
2017-07-25T10:17:16.002Z,140
2017-07-25T10:18:16.004Z,120
2017-07-25T10:19:15.717Z,100
2017-07-25T10:20:15.973Z,70
2017-07-25T10:21:15.963Z,70
2017-07-25T10:22:15.947Z,70
2017-07-25T10:23:15.631Z,70
2017-07-25T10:24:15.931Z,75
2017-07-25T10:25:15.917Z,70
2017-07-25T10:26:15.916Z,80
2017-07-25T10:27:16.246Z,100
2017-07-25T10:28:15.271Z,90
2017-07-25T10:29:15.312Z,120
2017-07-25T10:30:15.888Z,70
2017-07-25T10:31:15.555Z,45
2017-07-25T10:32:15.538Z,55
2017-07-25T10:33:15.852Z,60
2017-07-25T10:34:16.145Z,70
2017-07-25T10:35:15.239Z,45
2017-07-25T10:36:15.502Z,40
2017-07-25T10:37:15.803Z,50
2017-07-25T10:38:15.192Z,60
2017-07-25T10:39:16.124Z,95
2017-07-25T10:40:15.465Z,85
2017-07-25T10:41:15.773Z,90
2017-07-25T10:42:15.762Z,95
2017-07-25T10:43:16.069Z,70
2017-07-25T10:44:15.742Z,95
2017-07-25T10:45:16.096Z,105
2017-07-25T10:46:15.718Z,120
2017-07-25T10:47:16.024Z,155
2017-07-25T10:48:15.073Z,145
2017-07-25T10:49:16.035Z,150
2017-07-25T10:50:15.702Z,165
2017-07-25T10:51:15.366Z,150
2017-07-25T10:52:15.973Z,105
2017-07-25T10:53:15.653Z,85
2017-07-25T10:54:15.015Z,90
2017-07-25T10:55:15.634Z,60
2017-07-25T10:56:15.616Z,85
2017-07-25T10:57:15.931Z,110
2017-07-25T10:58:15.600Z,95
2017-07-25T10:59:14.970Z,100
2017-07-25T11:00:15.282Z,130
2017-07-25T11:01:15.876Z,165
2017-07-25T11:02:14.936Z,160
2017-07-25T11:03:15.555Z,165
2017-07-25T11:04:15.222Z,175
2017-07-25T11:05:15.539Z,195
2017-07-25T11:06:15.216Z,205
2017-07-25T11:07:15.505Z,235
2017-07-25T11:08:15.186Z,260
2017-07-25T11:09:15.201Z,265
2017-07-25T11:10:14.850Z,275
2017-07-25T11:11:15.471Z,275
2017-07-25T11:12:15.679Z,280
2017-07-25T11:13:15.147Z,290
2017-07-25T11:14:15.134Z,300
2017-07-25T11:15:15.117Z,265
2017-07-25T11:16:15.109Z,245
2017-07-25T11:17:15.411Z,190
2017-07-25T11:18:14.778Z,140
2017-07-25T11:19:15.428Z,155
2017-07-25T11:20:15.084Z,165
2017-07-25T11:21:15.372Z,125
2017-07-25T11:22:15.361Z,75
2017-07-25T11:23:15.358Z,50
2017-07-25T11:24:15.343Z,35
2017-07-25T11:25:15.060Z,30
2017-07-25T11:26:15.023Z,20
2017-07-25T11:27:15.005Z,15
2017-07-25T11:28:15.310Z,20
2017-07-25T11:29:15.298Z,40
2017-07-25T11:30:14.350Z,60
2017-07-25T11:31:15.283Z,110
2017-07-25T11:32:15.278Z,190
2017-07-25T11:33:14.637Z,230
2017-07-25T11:34:15.251Z,230
2017-07-25T11:35:14.936Z,195
2017-07-25T11:36:14.292Z,175
2017-07-25T11:37:14.938Z,160
2017-07-25T11:38:14.899Z,180
2017-07-25T11:39:15.526Z,105
2017-07-25T11:40:15.208Z,85
2017-07-25T11:41:15.182Z,70
2017-07-25T11:42:14.859Z,55
2017-07-25T11:43:15.168Z,85
2017-07-25T11:44:14.846Z,75
2017-07-25T11:45:15.156Z,155
2017-07-25T11:46:15.499Z,130
2017-07-25T11:47:15.445Z,130
2017-07-25T11:48:14.804Z,125
2017-07-25T11:49:15.113Z,70
2017-07-25T11:50:14.790Z,80
2017-07-25T11:51:15.110Z,120
2017-07-25T11:52:14.459Z,210
2017-07-25T11:53:14.450Z,270
2017-07-25T11:54:15.066Z,285
2017-07-25T11:55:14.434Z,290
2017-07-25T11:56:14.729Z,275
2017-07-25T11:57:15.079Z,285
2017-07-25T11:58:14.395Z,285
2017-07-25T11:59:15.329Z,290
2017-07-25T12:00:14.694Z,290
2017-07-25T12:01:14.996Z,300
2017-07-25T12:02:14.370Z,305
2017-07-25T12:03:14.979Z,300
2017-07-25T12:04:14.358Z,335
2017-07-25T12:05:14.655Z,320
2017-07-25T12:06:14.638Z,290
2017-07-25T12:07:15.258Z,370
2017-07-25T12:08:14.339Z,330
2017-07-25T12:09:14.609Z,275
2017-07-25T12:10:14.917Z,290
2017-07-25T12:11:14.907Z,190
2017-07-25T12:12:14.909Z,165
2017-07-25T12:13:14.891Z,135
2017-07-25T12:14:14.570Z,170
2017-07-25T12:15:14.871Z,170
2017-07-25T12:16:14.555Z,160
2017-07-25T12:17:14.851Z,150
2017-07-25T12:18:14.552Z,160
2017-07-25T12:19:14.522Z,150
2017-07-25T12:20:14.826Z,140
2017-07-25T12:21:14.827Z,150
2017-07-25T12:22:14.182Z,135
2017-07-25T12:23:14.192Z,155
2017-07-25T12:24:14.172Z,135
2017-07-25T12:25:14.788Z,155
2017-07-25T12:26:14.498Z,150
2017-07-25T12:27:14.460Z,140
2017-07-25T12:28:14.759Z,135
2017-07-25T12:29:14.435Z,125
2017-07-25T12:30:14.442Z,150
2017-07-25T12:31:15.085Z,145
2017-07-25T12:32:14.729Z,165
2017-07-25T12:33:14.085Z,150
2017-07-25T12:34:14.713Z,165
2017-07-25T12:35:14.703Z,155
2017-07-25T12:36:14.686Z,140
2017-07-25T12:37:14.993Z,160
2017-07-25T12:38:14.988Z,150
2017-07-25T12:39:14.983Z,120
2017-07-25T12:40:14.352Z,145
2017-07-25T12:41:14.332Z,145
2017-07-25T12:42:14.321Z,150
2017-07-25T12:43:14.317Z,155
2017-07-25T12:44:14.298Z,155
2017-07-25T12:45:14.293Z,165
2017-07-25T12:46:13.973Z,145
2017-07-25T12:47:14.590Z,110
2017-07-25T12:48:14.582Z,165
2017-07-25T12:49:14.886Z,170
2017-07-25T12:50:14.566Z,160
2017-07-25T12:51:14.233Z,135
2017-07-25T12:52:14.554Z,115
2017-07-25T12:53:14.221Z,145
2017-07-25T12:54:14.844Z,180
2017-07-25T12:55:14.522Z,160
2017-07-25T12:56:14.505Z,125
2017-07-25T12:57:14.502Z,55
2017-07-25T12:58:14.496Z,70
2017-07-25T12:59:14.175Z,50
2017-07-25T13:00:14.157Z,40
2017-07-25T13:01:14.166Z,55
2017-07-25T13:02:14.145Z,95
2017-07-25T13:03:14.449Z,105
2017-07-25T13:04:14.126Z,85
2017-07-25T13:05:13.804Z,80
2017-07-25T13:06:14.425Z,115
2017-07-25T13:07:13.470Z,145
2017-07-25T13:08:14.398Z,125
2017-07-25T13:09:14.391Z,190
2017-07-25T13:10:14.072Z,190
2017-07-25T13:11:14.375Z,145
2017-07-25T13:12:14.565Z,120
2017-07-25T13:13:14.351Z,115
2017-07-25T13:14:14.031Z,125
2017-07-25T13:15:14.014Z,105
2017-07-25T13:16:14.057Z,105
2017-07-25T13:17:14.000Z,95
2017-07-25T13:18:14.003Z,125
2017-07-25T13:19:14.185Z,95
2017-07-25T13:20:13.673Z,115
2017-07-25T13:21:14.271Z,155
2017-07-25T13:22:14.276Z,135
2017-07-25T13:23:14.261Z,150
2017-07-25T13:24:14.247Z,150
2017-07-25T13:25:13.924Z,185
2017-07-25T13:26:14.279Z,170
2017-07-25T13:27:13.901Z,170
2017-07-25T13:28:14.232Z,175
2017-07-25T13:29:13.575Z,165
2017-07-25T13:30:14.235Z,185
2017-07-25T13:31:13.877Z,185
2017-07-25T13:32:13.860Z,180
2017-07-25T13:33:13.869Z,175
2017-07-25T13:34:13.528Z,195
2017-07-25T13:35:14.147Z,200
2017-07-25T13:36:14.137Z,195
2017-07-25T13:37:14.130Z,200
2017-07-25T13:38:13.812Z,180
2017-07-25T13:39:14.113Z,195
2017-07-25T13:40:13.795Z,210
2017-07-25T13:41:13.469Z,165
2017-07-25T13:42:14.400Z,165
2017-07-25T13:43:14.081Z,175
2017-07-25T13:44:13.757Z,180
2017-07-25T13:45:13.741Z,195
2017-07-25T13:46:13.738Z,190
2017-07-25T13:47:14.036Z,180
2017-07-25T13:48:13.763Z,150
2017-07-25T13:49:14.033Z,160
2017-07-25T13:50:13.076Z,160
2017-07-25T13:51:14.226Z,160
2017-07-25T13:52:13.994Z,175
2017-07-25T13:53:13.371Z,185
2017-07-25T13:54:13.677Z,175
2017-07-25T13:55:13.031Z,175
2017-07-25T13:56:13.955Z,170
2017-07-25T13:57:13.952Z,160
2017-07-25T13:58:13.620Z,120
2017-07-25T13:59:13.338Z,110
2017-07-25T14:00:13.287Z,145
2017-07-25T14:01:13.905Z,115
2017-07-25T14:02:13.272Z,115
2017-07-25T14:03:13.578Z,145
2017-07-25T14:04:13.259Z,140
2017-07-25T14:05:14.182Z,155
2017-07-25T14:06:13.868Z,200
2017-07-25T14:07:13.228Z,205
2017-07-25T14:08:13.851Z,180
2017-07-25T14:09:13.214Z,185
2017-07-25T14:10:13.844Z,205
2017-07-25T14:11:13.822Z,185
2017-07-25T14:12:13.495Z,210
2017-07-25T14:13:13.792Z,165
2017-07-25T14:14:13.792Z,175